createdAt,value
2018-01-28T00:01:00.077Z,4.27
2018-01-28T00:03:26.503Z,4.60
2018-01-28T00:05:52.934Z,4.47
2018-01-28T00:08:20.119Z,3.60
2018-01-28T00:10:46.504Z,3.50
2018-01-28T00:13:12.862Z,4.07
2018-01-28T00:15:39.248Z,3.70
2018-01-28T00:18:05.849Z,4.00
2018-01-28T00:20:32.201Z,5.83
2018-01-28T00:22:58.542Z,3.97
2018-01-28T00:25:24.931Z,3.93
2018-01-28T00:27:51.301Z,3.87
2018-01-28T00:30:17.742Z,4.40
2018-01-28T00:32:44.119Z,3.43
2018-01-28T00:35:10.507Z,5.50
2018-01-28T00:37:36.853Z,5.10
2018-01-28T00:40:03.242Z,4.60
2018-01-28T00:42:29.611Z,4.90
2018-01-28T00:44:55.968Z,3.73
2018-01-28T00:47:29.147Z,4.53
2018-01-28T00:49:55.515Z,4.93
2018-01-28T00:52:21.846Z,4.00
2018-01-28T00:54:48.212Z,4.90
2018-01-28T00:57:14.773Z,5.27
2018-01-28T00:59:41.115Z,5.13
2018-01-28T01:02:07.478Z,7.87
2018-01-28T01:04:33.877Z,4.13
2018-01-28T01:07:00.207Z,4.50
2018-01-28T01:09:26.571Z,5.23
2018-01-28T01:11:52.926Z,3.53
2018-01-28T01:14:19.378Z,5.00
2018-01-28T01:16:45.750Z,6.73
2018-01-28T01:19:12.110Z,4.20
2018-01-28T01:21:38.477Z,3.63
2018-01-28T01:36:09.192Z,6.70
2018-01-28T01:38:35.578Z,4.83
2018-01-28T01:41:02.038Z,5.00
2018-01-28T01:43:28.395Z,4.73
2018-01-28T01:45:54.830Z,5.00
2018-01-28T01:48:21.212Z,5.53
2018-01-28T01:50:47.572Z,4.40
2018-01-28T01:53:13.981Z,4.20
2018-01-28T01:55:40.354Z,4.73
2018-01-28T01:58:06.768Z,5.00
2018-01-28T02:00:33.166Z,4.60
2018-01-28T02:03:00.295Z,4.60
2018-01-28T02:05:26.692Z,4.17
2018-01-28T02:07:53.072Z,4.63
2018-01-28T02:10:19.506Z,4.60
2018-01-28T02:12:45.875Z,5.73
2018-01-28T02:15:12.951Z,5.20
2018-01-28T02:17:39.346Z,5.03
2018-01-28T02:20:05.755Z,3.77
2018-01-28T02:22:32.159Z,4.27
2018-01-28T02:24:58.618Z,4.10
2018-01-28T02:27:25.018Z,4.30
2018-01-28T02:29:51.423Z,3.87
2018-01-28T02:32:17.806Z,3.77
2018-01-28T02:34:44.902Z,3.37
2018-01-28T02:37:11.250Z,4.40
2018-01-28T02:39:37.653Z,4.00
2018-01-28T02:42:04.034Z,3.47
2018-01-28T02:44:30.384Z,3.53
2018-01-28T02:46:56.751Z,3.47
2018-01-28T02:49:23.125Z,3.80
2018-01-28T02:51:49.508Z,4.70
2018-01-28T02:54:15.896Z,3.60
2018-01-28T02:56:42.243Z,3.40
2018-01-28T02:59:08.625Z,4.20
2018-01-28T03:01:35.774Z,3.53
2018-01-28T03:04:02.363Z,3.23
2018-01-28T03:06:28.722Z,3.67
2018-01-28T03:08:55.108Z,3.67
2018-01-28T03:11:22.241Z,3.20
2018-01-28T03:13:48.665Z,3.93
2018-01-28T03:16:15.052Z,3.80
2018-01-28T03:18:41.484Z,3.37
2018-01-28T03:21:07.843Z,3.80
2018-01-28T03:23:34.243Z,3.20
2018-01-28T03:26:01.337Z,3.90
2018-01-28T03:28:27.702Z,3.90
2018-01-28T03:30:54.120Z,3.83
2018-01-28T03:33:20.540Z,3.80
2018-01-28T03:35:46.932Z,3.53
2018-01-28T03:38:13.334Z,2.97
2018-01-28T03:40:39.679Z,4.40
2018-01-28T03:43:06.061Z,4.47
2018-01-28T03:45:33.173Z,3.90
2018-01-28T03:47:59.513Z,3.87
2018-01-28T03:50:25.881Z,3.83
2018-01-28T03:52:52.256Z,4.10
2018-01-28T03:55:18.620Z,4.23
2018-01-28T03:57:45.004Z,4.10
2018-01-28T04:00:12.179Z,3.90
2018-01-28T04:02:38.533Z,3.80
2018-01-28T04:05:12.015Z,4.30
2018-01-28T04:07:38.380Z,3.70
2018-01-28T04:10:04.747Z,3.50
2018-01-28T04:12:31.139Z,3.67
2018-01-28T04:14:57.513Z,3.50
2018-01-28T04:17:23.862Z,3.63
2018-01-28T04:19:50.966Z,3.87
2018-01-28T04:22:17.345Z,3.77
2018-01-28T04:24:43.762Z,4.17
2018-01-28T04:27:10.185Z,4.20
2018-01-28T04:29:36.535Z,4.70
2018-01-28T04:32:02.915Z,4.30
2018-01-28T04:34:30.096Z,5.03
2018-01-28T04:36:56.461Z,4.70
2018-01-28T04:39:22.833Z,4.13
2018-01-28T04:41:49.251Z,4.30
2018-01-28T04:44:15.610Z,4.30
2018-01-28T04:46:41.975Z,4.23
2018-01-28T04:49:09.099Z,3.57
2018-01-28T04:51:35.462Z,4.27
2018-01-28T04:54:02.568Z,5.23
2018-01-28T04:56:29.127Z,3.90
2018-01-28T04:58:55.489Z,3.90
2018-01-28T05:01:23.590Z,4.70
2018-01-28T05:03:49.975Z,3.90
2018-01-28T05:06:16.331Z,4.13
2018-01-28T05:08:43.647Z,4.60
2018-01-28T05:11:10.075Z,4.47
2018-01-28T05:13:36.488Z,4.17
2018-01-28T05:16:02.891Z,4.10
2018-01-28T05:18:29.311Z,4.10
2018-01-28T05:20:55.702Z,4.30
2018-01-28T05:23:22.131Z,4.67
2018-01-28T05:25:49.302Z,4.60
2018-01-28T05:28:15.707Z,3.97
2018-01-28T05:30:42.076Z,3.30
2018-01-28T05:33:08.422Z,3.60
2018-01-28T05:35:34.779Z,4.00
2018-01-28T05:38:01.151Z,3.90
2018-01-28T05:40:27.523Z,3.40
2018-01-28T05:42:53.883Z,3.17
2018-01-28T05:45:20.250Z,3.60
2018-01-28T05:47:46.622Z,3.50
2018-01-28T05:50:13.783Z,3.87
2018-01-28T05:52:40.139Z,3.80
2018-01-28T05:55:06.493Z,3.27
2018-01-28T05:57:32.930Z,3.47
2018-01-28T05:59:59.299Z,3.67
2018-01-28T06:02:25.685Z,3.63
2018-01-28T06:04:52.062Z,5.27
2018-01-28T06:07:18.430Z,3.60
2018-01-28T06:09:44.807Z,4.20
2018-01-28T06:12:11.211Z,4.57
2018-01-28T06:14:38.314Z,3.77
2018-01-28T06:17:04.660Z,3.83
2018-01-28T06:19:31.079Z,4.47
2018-01-28T06:21:57.460Z,4.93
2018-01-28T06:24:23.832Z,3.93
2018-01-28T06:26:50.259Z,4.37
2018-01-28T06:29:17.383Z,4.00
2018-01-28T06:31:43.720Z,4.17
2018-01-28T06:34:10.084Z,3.60
2018-01-28T06:36:37.212Z,3.60
2018-01-28T06:39:05.093Z,3.93
2018-01-28T06:41:31.500Z,4.10
2018-01-28T06:43:57.856Z,3.50
2018-01-28T06:46:24.227Z,4.03
2018-01-28T06:48:51.368Z,3.50
2018-01-28T06:51:17.732Z,4.00
2018-01-28T06:53:44.107Z,3.77
2018-01-28T06:56:10.500Z,4.47
2018-01-28T06:58:37.603Z,5.47
2018-01-28T07:01:03.958Z,4.57
2018-01-28T07:03:30.331Z,4.23
2018-01-28T07:05:56.707Z,3.57
2018-01-28T07:08:23.063Z,3.97
2018-01-28T07:10:49.452Z,4.23
2018-01-28T07:13:15.828Z,4.50
2018-01-28T07:15:42.197Z,3.37
2018-01-28T07:18:09.343Z,5.80
2018-01-28T07:20:35.714Z,4.90
2018-01-28T07:23:02.077Z,3.30
2018-01-28T07:25:28.455Z,3.90
2018-01-28T07:27:54.820Z,4.00
2018-01-28T07:30:21.208Z,3.50
2018-01-28T07:32:47.571Z,3.87
2018-01-28T07:35:20.922Z,4.63
2018-01-28T07:37:47.273Z,4.80
2018-01-28T07:40:13.704Z,4.40
2018-01-28T07:42:40.072Z,4.37
2018-01-28T07:45:06.453Z,3.63
2018-01-28T07:47:39.815Z,4.53
2018-01-28T07:50:06.205Z,4.00
2018-01-28T07:52:32.574Z,4.50
2018-01-28T07:54:58.924Z,4.27
2018-01-28T07:57:25.332Z,5.07
2018-01-28T07:59:51.727Z,5.57
2018-01-28T08:02:18.145Z,5.07
2018-01-28T08:04:51.389Z,4.27
2018-01-28T08:07:17.796Z,4.47
2018-01-28T08:12:53.502Z,5.10
2018-01-28T08:15:19.843Z,4.70
2018-01-28T08:17:46.235Z,4.23
2018-01-28T08:20:13.393Z,9.03
2018-01-28T08:22:40.519Z,8.87
2018-01-28T08:25:06.911Z,9.70
2018-01-28T08:27:35.140Z,10.60
2018-01-28T08:30:01.605Z,12.80
2018-01-28T08:32:27.972Z,7.20
2018-01-28T08:34:54.328Z,8.83
2018-01-28T08:37:20.663Z,6.60
2018-01-28T08:39:47.057Z,7.27
2018-01-28T08:42:14.203Z,10.00
2018-01-28T08:44:41.352Z,8.60
2018-01-28T08:47:08.529Z,8.17
2018-01-28T08:49:34.923Z,7.67
2018-01-28T08:52:01.314Z,15.25
2018-01-28T08:54:27.663Z,6.67
2018-01-28T08:56:54.029Z,6.97
2018-01-28T08:59:20.442Z,89.50
2018-01-28T09:01:46.777Z,9.23
2018-01-28T09:04:13.159Z,6.37
2018-01-28T09:06:39.552Z,10.00
2018-01-28T09:09:05.912Z,8.27
2018-01-28T09:11:32.251Z,11.18
2018-01-28T09:13:58.655Z,22.70
2018-01-28T09:16:24.998Z,61.83
2018-01-28T09:18:51.348Z,47.33
2018-01-28T09:21:17.725Z,45.53
2018-01-28T09:23:44.150Z,46.57
2018-01-28T09:26:10.492Z,35.30
2018-01-28T09:28:36.856Z,28.17
2018-01-28T09:31:03.262Z,29.43
2018-01-28T09:33:29.636Z,23.50
2018-01-28T09:35:56.117Z,31.67
2018-01-28T09:38:22.505Z,34.53
2018-01-28T09:40:48.902Z,94.10
2018-01-28T09:43:15.268Z,35.23
2018-01-28T09:45:42.349Z,34.07
2018-01-28T09:48:08.735Z,35.20
2018-01-28T09:50:35.102Z,34.30
2018-01-28T09:53:02.200Z,19.73
2018-01-28T09:55:28.546Z,20.80
2018-01-28T10:00:51.686Z,15.43
2018-01-28T10:03:18.135Z,17.00
2018-01-28T10:05:48.540Z,11.37
2018-01-28T10:08:14.904Z,13.13
2018-01-28T10:10:41.249Z,12.33
2018-01-28T10:13:07.614Z,13.67
2018-01-28T10:15:33.970Z,11.93
2018-01-28T10:18:01.073Z,10.20
2018-01-28T10:20:27.447Z,14.10
2018-01-28T10:22:53.798Z,10.60
2018-01-28T10:25:20.908Z,11.17
2018-01-28T10:27:47.273Z,10.17
2018-01-28T10:30:13.630Z,8.60
2018-01-28T10:32:40.814Z,9.63
2018-01-28T10:35:09.152Z,9.77
2018-01-28T10:37:35.540Z,9.50
2018-01-28T10:40:09.016Z,9.63
2018-01-28T10:42:35.371Z,11.33
2018-01-28T10:45:01.718Z,8.70
2018-01-28T10:47:28.088Z,8.97
2018-01-28T10:49:54.500Z,8.93
2018-01-28T10:52:20.899Z,9.20
2018-01-28T10:54:48.021Z,8.53
2018-01-28T10:57:18.293Z,8.50
2018-01-28T10:59:44.688Z,9.70
2018-01-28T11:02:11.067Z,9.07
2018-01-28T11:04:37.462Z,8.47
2018-01-28T11:07:03.884Z,7.33
2018-01-28T11:09:30.244Z,8.30
2018-01-28T11:11:56.603Z,7.77
2018-01-28T11:14:23.704Z,7.37
2018-01-28T11:16:50.132Z,6.80
2018-01-28T11:19:17.260Z,9.10
2018-01-28T11:21:43.719Z,8.00
2018-01-28T11:24:10.807Z,9.13
2018-01-28T11:26:37.196Z,7.47
2018-01-28T11:29:03.576Z,8.67
2018-01-28T11:31:30.010Z,6.60
2018-01-28T11:33:56.448Z,6.73
2018-01-28T11:36:22.821Z,6.53
2018-01-28T11:38:49.224Z,7.43
2018-01-28T11:41:15.656Z,7.63
2018-01-28T11:43:42.026Z,7.20
2018-01-28T11:46:08.389Z,9.17
2018-01-28T11:48:34.769Z,7.30
2018-01-28T11:51:01.345Z,8.57
2018-01-28T11:53:27.704Z,9.20
2018-01-28T11:55:54.084Z,11.17
2018-01-28T11:58:20.454Z,9.10
2018-01-28T12:00:46.800Z,10.17
2018-01-28T12:03:13.164Z,9.83
2018-01-28T12:05:39.543Z,11.07
2018-01-28T12:08:05.936Z,11.93
2018-01-28T12:10:32.280Z,9.50
2018-01-28T12:12:58.649Z,10.23
2018-01-28T12:15:25.077Z,11.73
2018-01-28T12:17:51.422Z,9.40
2018-01-28T12:20:17.777Z,10.67
2018-01-28T12:22:44.142Z,9.53
2018-01-28T12:25:10.593Z,10.03
2018-01-28T12:27:37.015Z,9.47
2018-01-28T12:30:03.462Z,11.47
2018-01-28T12:32:56.625Z,7.63
2018-01-28T12:35:23.031Z,9.37
2018-01-28T12:37:49.408Z,8.17
2018-01-28T12:40:15.801Z,8.13
2018-01-28T12:42:42.185Z,9.40
2018-01-28T12:45:09.356Z,8.80
2018-01-28T12:47:36.442Z,8.57
2018-01-28T12:50:02.830Z,10.17
2018-01-28T12:52:30.022Z,8.27
2018-01-28T12:54:56.420Z,6.60
2018-01-28T12:57:23.552Z,8.40
2018-01-28T12:59:49.920Z,8.80
2018-01-28T13:02:17.083Z,10.83
2018-01-28T13:04:44.249Z,7.40
2018-01-28T13:07:10.656Z,8.80
2018-01-28T13:09:37.020Z,5.87
2018-01-28T13:12:03.437Z,7.50
2018-01-28T13:17:26.809Z,8.03
2018-01-28T13:19:58.212Z,7.83
2018-01-28T13:22:24.596Z,7.53
2018-01-28T13:24:51.947Z,8.30
2018-01-28T13:27:36.625Z,7.93
2018-01-28T13:30:04.011Z,7.70
2018-01-28T13:32:30.364Z,10.07
2018-01-28T13:34:56.748Z,8.07
2018-01-28T13:37:23.146Z,6.60
2018-01-28T13:39:49.528Z,6.83
2018-01-28T13:42:16.701Z,9.17
2018-01-28T13:44:43.060Z,6.03
2018-01-28T13:47:09.429Z,6.70
2018-01-28T13:49:35.836Z,6.93
2018-01-28T13:52:02.197Z,9.63
2018-01-28T13:54:28.574Z,5.10
2018-01-28T13:56:55.709Z,6.30
2018-01-28T14:02:12.851Z,7.37
2018-01-28T14:04:40.037Z,5.60
2018-01-28T14:10:09.183Z,5.73
2018-01-28T14:12:35.599Z,5.97
2018-01-28T14:15:01.994Z,5.73
2018-01-28T14:17:29.175Z,5.97
2018-01-28T14:19:55.565Z,7.80
2018-01-28T14:22:21.971Z,7.67
2018-01-28T14:24:48.430Z,6.53
2018-01-28T14:27:14.787Z,6.50
2018-01-28T14:29:42.142Z,5.33
2018-01-28T14:32:10.495Z,5.77
2018-01-28T14:37:37.088Z,8.73
2018-01-28T14:40:04.189Z,5.47
2018-01-28T14:42:30.562Z,5.87
2018-01-28T14:44:57.015Z,6.37
2018-01-28T14:47:24.123Z,5.00
2018-01-28T14:49:50.464Z,6.70
2018-01-28T14:52:23.918Z,7.93
2018-01-28T14:54:51.036Z,5.70
2018-01-28T14:57:17.498Z,5.43
2018-01-28T14:59:43.955Z,8.33
2018-01-28T15:02:10.294Z,6.43
2018-01-28T15:04:36.695Z,7.47
2018-01-28T15:07:03.082Z,6.63
2018-01-28T15:09:29.419Z,5.90
2018-01-28T15:11:55.812Z,6.07
2018-01-28T15:14:27.848Z,7.30
2018-01-28T15:16:54.208Z,8.00
2018-01-28T15:19:20.628Z,7.07
2018-01-28T15:21:46.967Z,7.77
2018-01-28T15:24:13.340Z,8.47
2018-01-28T15:26:40.456Z,9.17
2018-01-28T15:29:06.819Z,9.03
2018-01-28T15:31:33.177Z,7.40
2018-01-28T15:34:00.023Z,7.33
2018-01-28T15:36:26.379Z,6.67
2018-01-28T15:38:52.767Z,7.87
2018-01-28T15:41:19.148Z,6.53
2018-01-28T15:43:45.504Z,6.53
2018-01-28T15:46:11.867Z,6.43
2018-01-28T15:48:38.268Z,6.60
2018-01-28T15:51:04.652Z,8.57
2018-01-28T15:53:31.104Z,9.67
2018-01-28T15:55:57.436Z,8.90
2018-01-28T15:58:23.900Z,7.83
2018-01-28T16:00:51.015Z,8.23
2018-01-28T16:03:17.384Z,6.40
2018-01-28T16:05:44.508Z,5.87
2018-01-28T16:08:10.885Z,5.57
2018-01-28T16:10:37.987Z,6.10
2018-01-28T16:13:04.396Z,5.93
2018-01-28T16:15:30.758Z,6.10
2018-01-28T16:17:57.136Z,6.20
2018-01-28T16:20:23.532Z,5.60
2018-01-28T16:22:50.067Z,5.37
2018-01-28T16:25:16.399Z,8.20
2018-01-28T16:27:42.761Z,6.23
2018-01-28T16:30:09.104Z,6.00
2018-01-28T16:32:35.491Z,6.10
2018-01-28T16:35:01.889Z,5.60
2018-01-28T16:37:28.264Z,4.00
2018-01-28T16:40:03.844Z,4.10
2018-01-28T16:42:30.182Z,5.17
2018-01-28T16:44:56.576Z,4.83
2018-01-28T16:47:23.721Z,4.50
2018-01-28T16:49:50.879Z,4.07
2018-01-28T16:52:17.984Z,4.33
2018-01-28T16:54:44.348Z,5.43
2018-01-28T16:57:10.736Z,6.03
2018-01-28T16:59:37.093Z,5.33
2018-01-28T17:02:03.510Z,4.53
2018-01-28T17:04:29.867Z,4.27
2018-01-28T17:06:56.257Z,4.73
2018-01-28T17:09:23.387Z,5.03
2018-01-28T17:11:49.741Z,4.50
2018-01-28T17:14:16.847Z,5.27
2018-01-28T17:16:43.266Z,4.20
2018-01-28T17:19:09.596Z,5.93
2018-01-28T17:21:35.964Z,6.50
2018-01-28T17:24:19.679Z,4.30
2018-01-28T17:26:46.089Z,5.13
2018-01-28T17:29:12.460Z,5.47
2018-01-28T17:31:38.826Z,6.03
2018-01-28T17:34:05.169Z,5.13
2018-01-28T17:36:31.519Z,4.20
2018-01-28T17:38:58.935Z,4.87
2018-01-28T17:41:25.312Z,4.80
2018-01-28T17:49:46.516Z,4.37
2018-01-28T17:52:12.873Z,3.93
2018-01-28T17:54:39.296Z,4.53
2018-01-28T17:57:05.639Z,4.23
2018-01-28T17:59:32.037Z,5.13
2018-01-28T18:01:58.420Z,6.10
2018-01-28T18:04:24.768Z,8.43
2018-01-28T18:06:51.115Z,3.83
2018-01-28T18:09:17.493Z,3.80
2018-01-28T18:11:43.832Z,5.47
2018-01-28T18:14:10.194Z,4.50
2018-01-28T18:16:36.595Z,3.73
2018-01-28T18:19:02.932Z,4.10
2018-01-28T18:21:29.291Z,4.37
2018-01-28T18:23:55.667Z,4.20
2018-01-28T18:26:22.813Z,3.90
2018-01-28T18:28:49.152Z,4.57
2018-01-28T18:31:15.528Z,4.10
2018-01-28T18:33:41.904Z,3.87
2018-01-28T18:36:08.252Z,3.77
2018-01-28T18:38:34.651Z,4.03
2018-01-28T18:41:01.047Z,3.60
2018-01-28T18:43:28.145Z,4.57
2018-01-28T18:45:54.488Z,3.70
2018-01-28T18:48:20.812Z,3.63
2018-01-28T18:50:47.196Z,4.63
2018-01-28T18:53:13.654Z,3.40
2018-01-28T18:55:40.758Z,4.00
2018-01-28T18:58:07.137Z,4.63
2018-01-28T19:00:34.307Z,4.23
2018-01-28T19:03:01.395Z,3.60
2018-01-28T19:05:27.762Z,3.60
2018-01-28T19:07:54.160Z,3.10
2018-01-28T19:10:20.545Z,3.37
2018-01-28T19:12:46.904Z,3.57
2018-01-28T19:15:14.040Z,3.60
2018-01-28T19:17:40.435Z,4.27
2018-01-28T19:20:06.826Z,3.63
2018-01-28T19:22:33.961Z,4.20
2018-01-28T19:25:00.360Z,4.27
2018-01-28T19:27:26.743Z,5.20
2018-01-28T19:29:53.164Z,4.57
2018-01-28T19:32:19.628Z,4.90
2018-01-28T19:34:46.012Z,4.67
2018-01-28T19:37:12.386Z,4.20
2018-01-28T19:39:38.814Z,4.27
2018-01-28T19:42:05.201Z,3.70
2018-01-28T19:44:32.301Z,4.07
2018-01-28T19:46:58.673Z,5.80
2018-01-28T19:49:25.046Z,4.60
2018-01-28T19:51:51.640Z,3.53
2018-01-28T19:54:18.013Z,4.50
2018-01-28T19:56:44.376Z,4.00
2018-01-28T19:59:10.785Z,4.37
2018-01-28T20:01:37.444Z,4.53
2018-01-28T20:04:04.120Z,5.73
2018-01-28T20:06:30.489Z,3.77
2018-01-28T20:08:56.828Z,4.83
2018-01-28T20:11:23.233Z,4.10
2018-01-28T20:13:49.642Z,5.10
2018-01-28T20:16:15.996Z,3.67
2018-01-28T20:18:42.420Z,4.37
2018-01-28T20:21:08.799Z,4.07
2018-01-28T20:23:35.147Z,5.60
2018-01-28T20:26:01.540Z,4.70
2018-01-28T20:28:27.906Z,5.07
2018-01-28T20:30:54.272Z,5.50
2018-01-28T20:33:21.393Z,3.67
2018-01-28T20:35:47.823Z,4.40
2018-01-28T20:38:14.194Z,4.53
2018-01-28T20:40:40.675Z,4.27
2018-01-28T20:43:07.022Z,3.93
2018-01-28T20:45:33.424Z,3.77
2018-01-28T20:48:00.532Z,4.77
2018-01-28T20:50:26.925Z,3.73
2018-01-28T20:52:53.349Z,4.70
2018-01-28T20:55:20.429Z,3.77
2018-01-28T20:57:46.841Z,7.37
2018-01-28T21:00:14.052Z,5.33
2018-01-28T21:02:40.416Z,4.20
2018-01-28T21:05:06.789Z,4.83
2018-01-28T21:07:33.206Z,4.17
2018-01-28T21:10:00.309Z,4.00
2018-01-28T21:12:26.690Z,3.80
2018-01-28T21:14:53.120Z,4.60
2018-01-28T21:17:19.523Z,4.10
2018-01-28T21:19:45.963Z,3.10
2018-01-28T21:22:12.348Z,3.80
2018-01-28T21:24:39.463Z,4.63
2018-01-28T21:27:05.819Z,3.77
2018-01-28T21:29:32.964Z,4.10
2018-01-28T21:31:59.312Z,4.40
2018-01-28T21:34:25.689Z,3.80
2018-01-28T21:36:52.126Z,3.63
2018-01-28T21:39:18.508Z,3.83
2018-01-28T21:41:44.848Z,3.53
2018-01-28T21:44:11.238Z,4.30
2018-01-28T21:46:37.614Z,4.50
2018-01-28T21:49:04.152Z,4.33
2018-01-28T21:51:30.506Z,3.60
2018-01-28T21:53:56.856Z,3.90
2018-01-28T21:56:23.947Z,3.10
2018-01-28T21:58:50.318Z,3.40
2018-01-28T22:01:16.752Z,3.97
2018-01-28T22:03:43.141Z,4.00
2018-01-28T22:06:10.278Z,3.37
2018-01-28T22:08:36.661Z,3.63
2018-01-28T22:11:03.162Z,3.90
2018-01-28T22:13:29.499Z,4.70
2018-01-28T22:15:55.855Z,3.07
2018-01-28T22:18:23.025Z,3.80
2018-01-28T22:20:49.523Z,3.43
2018-01-28T22:23:15.920Z,3.10
2018-01-28T22:25:42.345Z,3.93
2018-01-28T22:28:08.731Z,3.73
2018-01-28T22:30:35.128Z,3.90
2018-01-28T22:33:01.508Z,3.90
2018-01-28T22:35:27.920Z,5.37
2018-01-28T22:37:54.334Z,4.17
2018-01-28T22:40:20.700Z,3.70
2018-01-28T22:42:47.139Z,3.33
2018-01-28T22:45:13.507Z,4.13
2018-01-28T22:47:40.672Z,3.57
2018-01-28T22:50:07.778Z,3.53
2018-01-28T22:52:34.134Z,3.50
2018-01-28T22:55:00.518Z,3.07
2018-01-28T22:57:26.908Z,3.27
2018-01-28T22:59:53.317Z,2.60
2018-01-28T23:02:19.705Z,4.37
2018-01-28T23:04:46.139Z,3.30
2018-01-28T23:07:12.511Z,3.53
2018-01-28T23:09:38.915Z,3.63
2018-01-28T23:12:05.324Z,4.70
2018-01-28T23:14:31.664Z,4.03
2018-01-28T23:16:58.072Z,4.40
2018-01-28T23:19:24.514Z,3.73
2018-01-28T23:21:50.912Z,4.17
2018-01-28T23:24:18.047Z,3.23
2018-01-28T23:26:44.398Z,4.67
2018-01-28T23:29:10.883Z,5.47
2018-01-28T23:31:37.282Z,4.30
2018-01-28T23:34:04.416Z,3.97
2018-01-28T23:36:30.798Z,4.00
2018-01-28T23:38:57.159Z,4.73
2018-01-28T23:41:23.561Z,3.20
2018-01-28T23:43:50.703Z,3.70
2018-01-28T23:46:17.840Z,3.13
2018-01-28T23:48:44.248Z,3.83
2018-01-28T23:51:10.595Z,4.10
2018-01-28T23:53:36.975Z,3.10
2018-01-28T23:56:04.100Z,3.37
2018-01-28T23:58:30.523Z,3.23
